ASG weather

Ashburton Aerodrome
Canterbury Region, New Zealand

Public forecast

Using degrees Celsius for public forecast. Weather courtesy of forecast.io.

Closest aviation weather report (METAR) to Ashburton Aerodrome

Closest report is Christchurch International Airport, 40.4 nm (74.9 km) NE. Retrieved 2020/06/07 02:00 UTC (33 minutes ago):

NZCH 070200Z AUTO 05002KT 9999 NCD 11/04 Q1009 NOSIG

Closest aviation forecast (TAF) to Ashburton Aerodrome

Closest forecast is Christchurch International Airport, 40.4 nm (74.9 km) NE. Retrieved 2020-06-07 00:21 UTC (2 hours ago):

TAF NZCH 062305Z 0700/0800 32008KT CAVOK PROB30 0712/0718 2000 BR